Muscle Shoals, AL

12:03 PM CST on February 18, 2018 (GMT -0600)
Jackson Heights | | Change Station
Active Advisory: Flood Warning

Elev 525 ft 34.75 °N, 87.64 °W | Updated 3 seconds ago

Clear
Clear
54.3 °F
Feels Like 54.3 °F
N
4.5
Wind Variable Wind from East
Gusts 7.4 mph

Today
High -- | Low -- °F
--% Chance of Precip.
Yesterday
High -- | Low -- °F
Precip. -- in
Pressure 30.26 in
Visibility 10.0 miles
Clouds Clear
Dew Point 35 °F
Humidity 48%
Rainfall 0.00 in
Snow Depth Not available.
6:32 AM 5:36 PM
Waxing Crescent, 8% visible
METAR KMSL 181753Z AUTO 10009KT 10SM CLR 12/04 A3026 RMK AO2 SLP245 T01220039 10122 20044 58020
Pressure 30.26 in
Visibility 10.0 miles
Clouds Clear
Dew Point 35 °F
Humidity 48%
Rainfall 0.00 in
Snow Depth Not available.
6:32 AM 5:36 PM
Waxing Crescent, 8% visible
METAR KMSL 181753Z AUTO 10009KT 10SM CLR 12/04 A3026 RMK AO2 SLP245 T01220039 10122 20044 58020

Get Your Daily Forecast Email!

Thanks for signing up!

Be on the lookout for a verification email in your inbox.

You'll start receiving severe weather alerts in your inbox..

×

10-Day Weather Forecast

Almanac

Astronomy

Feb. 18, 2018 Rise Set
Actual Time
Civil Twilight
Nautical Twilight
Astronomical Twilight
Moon
Length of Visible Light
Length of Day
Tomorrow will be .
, % of the Moon is Illuminated

Today's Extremes

State Highs State Lows

Community

WunderPhotos

Category 6

Welcome to Category 6. This is the collective home for Weather Underground's featured writeups by Dr. Jeff Masters (right), Bob Henson (left), Chris Burt, and other regular contributors.

Nearby

Air Quality

  Air Quality AQ Index Pollutant
Not available.

Snow Depth

Station Depth Elevation

Earthquake Activity

City Distance Mag. Time & Date
Minimum magnitude displayed is 2.5.

Coastal Water Temperatures

Place Temperature

Stations

Nearby Weather Stations

Station Location Temp. Windchill Dew Point Humidity Wind Precip. Elev Updated Type
                   

Watches & Warnings

Flood Warning
Issued: 4:26 AM CST Feb. 18, 2018 – National Weather Service

The Flood Warning continues for
the Tennessee River at Florence.
* Until this evening.
* At 4 am Sunday the stage was 18.0 feet and rising.
* Flood stage is 18.0 feet.
* Minor flooding is occurring and minor flooding is forecast.
* Recent activity... the maximum river stage in the 24 hours ending at
4 am Sunday was 18.4 feet.
* Forecast... the river will continue to fall to below flood stage by
late this morning.
* Impact... at 18.0 feet... flooding of McFarland Park begins.
* Flood history... this crest compares to a previous crest of 18.3 feet
on Sep 7 2011.

River flood observed 12pm 6pm 12am 6am crest
location stage stg day time sun sun Mon Mon stg day time

Tennessee River
Florence 18.0 18.0 sun 4 am 18.0 18.0 18.0 17.9 N/A


Lat... Lon 3485 8765 3471 8762 3466 8788 3473 8811 3500 8820